createdAt,value
2018-05-15T00:00:53.808Z,52.25
2018-05-15T00:03:19.800Z,52.27
2018-05-15T00:05:45.804Z,52.26
2018-05-15T00:08:11.793Z,52.41
2018-05-15T00:10:37.804Z,52.14
2018-05-15T00:13:03.793Z,52.25
2018-05-15T00:15:29.819Z,52.20
2018-05-15T00:17:55.810Z,52.09
2018-05-15T00:20:21.793Z,52.07
2018-05-15T00:22:47.821Z,52.34
2018-05-15T00:25:13.811Z,52.24
2018-05-15T00:27:39.797Z,52.14
2018-05-15T00:30:05.833Z,52.26
2018-05-15T00:32:31.820Z,52.31
2018-05-15T00:34:57.810Z,52.43
2018-05-15T00:37:23.796Z,52.21
2018-05-15T00:39:49.821Z,52.39
2018-05-15T00:42:15.806Z,52.45
2018-05-15T00:44:41.826Z,52.34
2018-05-15T00:47:07.782Z,52.32
2018-05-15T00:49:33.805Z,52.53
2018-05-15T00:51:59.788Z,52.37
2018-05-15T00:54:25.903Z,52.34
2018-05-15T00:56:51.880Z,52.65
2018-05-15T00:59:17.865Z,52.53
2018-05-15T01:01:43.857Z,52.41
2018-05-15T01:04:09.886Z,52.39
2018-05-15T01:06:35.878Z,52.45
2018-05-15T01:09:01.901Z,52.39
2018-05-15T01:11:27.907Z,52.34
2018-05-15T01:13:53.919Z,52.47
2018-05-15T01:16:19.981Z,52.19
2018-05-15T01:18:45.974Z,52.37
2018-05-15T01:21:11.957Z,52.44
2018-05-15T01:23:37.972Z,52.32
2018-05-15T01:26:03.992Z,52.48
2018-05-15T01:28:29.986Z,52.40
2018-05-15T01:30:56.001Z,52.36
2018-05-15T01:33:22.010Z,52.33
2018-05-15T01:35:48.019Z,52.35
2018-05-15T01:38:14.038Z,52.35
2018-05-15T01:40:40.023Z,52.40
2018-05-15T01:43:06.000Z,52.40
2018-05-15T01:45:31.979Z,52.30
2018-05-15T01:47:57.968Z,52.25
2018-05-15T01:50:23.961Z,52.37
2018-05-15T01:52:49.940Z,52.44
2018-05-15T01:55:15.940Z,52.23
2018-05-15T01:57:41.938Z,52.22
2018-05-15T02:00:07.936Z,52.25
2018-05-15T02:02:33.911Z,52.25
2018-05-15T02:04:59.899Z,52.32
2018-05-15T02:07:25.884Z,52.22
2018-05-15T02:09:51.876Z,52.18
2018-05-15T02:12:17.867Z,52.30
2018-05-15T02:14:43.846Z,52.41
2018-05-15T02:17:09.827Z,52.28
2018-05-15T02:19:35.819Z,52.34
2018-05-15T02:22:01.826Z,52.28
2018-05-15T02:24:27.806Z,52.21
2018-05-15T02:26:53.798Z,52.08
2018-05-15T02:29:19.779Z,52.44
2018-05-15T02:31:45.772Z,52.28
2018-05-15T02:34:11.754Z,52.40
2018-05-15T02:36:37.752Z,52.23
2018-05-15T02:39:03.737Z,52.22
2018-05-15T02:41:29.721Z,52.31
2018-05-15T02:43:55.707Z,52.39
2018-05-15T02:46:21.698Z,52.22
2018-05-15T02:48:47.689Z,52.32
2018-05-15T02:51:13.675Z,52.19
2018-05-15T02:53:39.657Z,52.09
2018-05-15T02:56:05.647Z,52.09
2018-05-15T02:58:31.627Z,52.11
2018-05-15T03:00:57.621Z,52.05
2018-05-15T03:03:23.599Z,52.17
2018-05-15T03:05:49.589Z,52.03
2018-05-15T03:08:15.571Z,52.00
2018-05-15T03:10:41.588Z,52.05
2018-05-15T03:13:07.569Z,51.97
2018-05-15T03:15:33.580Z,52.24
2018-05-15T03:17:59.576Z,52.12
2018-05-15T03:20:25.550Z,51.97
2018-05-15T03:22:51.542Z,51.94
2018-05-15T03:25:17.506Z,52.03
2018-05-15T03:27:43.495Z,52.07
2018-05-15T03:30:09.489Z,52.01
2018-05-15T03:32:35.472Z,52.01
2018-05-15T03:35:01.466Z,52.01
2018-05-15T03:37:27.456Z,52.08
2018-05-15T03:39:53.434Z,51.95
2018-05-15T03:42:19.410Z,52.01
2018-05-15T03:44:45.396Z,51.94
2018-05-15T03:47:11.383Z,52.09
2018-05-15T03:49:37.380Z,51.82
2018-05-15T03:52:03.364Z,51.90
2018-05-15T03:54:29.351Z,52.02
2018-05-15T03:56:55.337Z,52.51
2018-05-15T03:59:21.321Z,52.23
2018-05-15T04:01:47.340Z,52.37
2018-05-15T04:04:13.316Z,52.41
2018-05-15T04:06:39.413Z,52.30
2018-05-15T04:09:05.319Z,52.31
2018-05-15T04:11:31.304Z,52.31
2018-05-15T04:13:57.313Z,52.42
2018-05-15T04:16:23.299Z,52.25
2018-05-15T04:18:49.282Z,52.14
2018-05-15T04:21:15.279Z,52.17
2018-05-15T04:23:41.294Z,52.08
2018-05-15T04:26:07.286Z,52.31
2018-05-15T04:28:33.264Z,52.32
2018-05-15T04:30:59.251Z,52.33
2018-05-15T04:33:25.240Z,52.18
2018-05-15T04:35:51.225Z,52.82
2018-05-15T04:38:17.207Z,52.62
2018-05-15T04:40:43.208Z,52.72
2018-05-15T04:43:09.199Z,52.57
2018-05-15T04:45:35.192Z,52.90
2018-05-15T04:48:01.179Z,52.98
2018-05-15T04:50:27.170Z,52.46
2018-05-15T04:52:53.151Z,52.83
2018-05-15T04:55:19.135Z,52.99
2018-05-15T04:57:45.252Z,52.94
2018-05-15T05:00:11.206Z,53.11
2018-05-15T05:02:37.200Z,52.95
2018-05-15T05:05:03.187Z,53.34
2018-05-15T05:07:29.197Z,53.43
2018-05-15T05:09:55.206Z,53.57
2018-05-15T05:12:21.195Z,53.56
2018-05-15T05:14:47.177Z,53.26
2018-05-15T05:17:13.190Z,54.11
2018-05-15T05:19:39.158Z,53.55
2018-05-15T05:22:05.142Z,54.04
2018-05-15T05:24:31.127Z,53.56
2018-05-15T05:26:57.114Z,54.04
2018-05-15T05:29:23.100Z,53.92
2018-05-15T05:31:49.084Z,54.02
2018-05-15T05:34:15.084Z,53.95
2018-05-15T05:36:41.094Z,53.88
2018-05-15T05:39:07.079Z,53.83
2018-05-15T05:41:33.071Z,53.96
2018-05-15T05:43:59.052Z,53.72
2018-05-15T05:46:25.091Z,53.34
2018-05-15T05:48:51.026Z,53.38
2018-05-15T05:51:17.013Z,53.39
2018-05-15T05:53:42.999Z,53.80
2018-05-15T05:56:09.031Z,53.49
2018-05-15T05:58:34.981Z,53.71
2018-05-15T06:01:00.984Z,53.58
2018-05-15T06:03:26.973Z,53.68
2018-05-15T06:05:52.965Z,53.79
2018-05-15T06:08:18.950Z,53.73
2018-05-15T06:10:44.960Z,53.37
2018-05-15T06:13:10.941Z,53.23
2018-05-15T06:15:36.922Z,53.39
2018-05-15T06:18:02.917Z,53.15
2018-05-15T06:20:28.898Z,53.09
2018-05-15T06:22:54.888Z,53.13
2018-05-15T06:25:20.879Z,53.03
2018-05-15T06:27:46.859Z,52.85
2018-05-15T06:30:12.874Z,52.86
2018-05-15T06:32:38.846Z,52.81
2018-05-15T06:35:04.845Z,53.56
2018-05-15T06:37:30.835Z,53.49
2018-05-15T06:39:56.818Z,53.07
2018-05-15T06:42:22.800Z,53.11
2018-05-15T06:44:48.849Z,53.05
2018-05-15T06:47:14.825Z,53.12
2018-05-15T06:49:40.826Z,52.83
2018-05-15T06:52:06.859Z,53.55
2018-05-15T06:54:32.843Z,53.09
2018-05-15T06:56:58.841Z,53.11
2018-05-15T06:59:24.830Z,53.62
2018-05-15T07:01:50.818Z,54.18
2018-05-15T07:04:16.799Z,54.54
2018-05-15T07:06:42.783Z,55.03
2018-05-15T07:09:08.775Z,54.71
2018-05-15T07:11:34.803Z,54.33
2018-05-15T07:14:00.836Z,54.74
2018-05-15T07:16:26.758Z,54.61
2018-05-15T07:18:52.740Z,54.37
2018-05-15T07:21:18.730Z,53.80
2018-05-15T07:23:44.713Z,53.89
2018-05-15T07:26:10.714Z,53.96
2018-05-15T07:28:36.761Z,53.93
2018-05-15T07:31:02.753Z,53.92
2018-05-15T07:33:28.756Z,54.46
2018-05-15T07:35:54.718Z,53.80
2018-05-15T07:38:20.730Z,54.46
2018-05-15T07:40:46.722Z,53.89
2018-05-15T07:43:12.702Z,53.86
2018-05-15T07:45:38.693Z,53.89
2018-05-15T07:48:04.678Z,53.87
2018-05-15T07:50:30.707Z,53.97
2018-05-15T07:52:56.655Z,53.87
2018-05-15T07:55:22.663Z,53.66
2018-05-15T07:57:48.637Z,53.23
2018-05-15T08:00:14.667Z,53.27
2018-05-15T08:02:40.649Z,53.49
2018-05-15T08:05:06.691Z,53.53
2018-05-15T08:07:32.698Z,53.35
2018-05-15T08:09:58.780Z,53.25
2018-05-15T08:12:24.808Z,53.23
2018-05-15T08:14:50.789Z,53.29
2018-05-15T08:17:16.780Z,53.15
2018-05-15T08:19:42.766Z,53.20
2018-05-15T08:22:08.748Z,53.19
2018-05-15T08:24:34.737Z,53.10
2018-05-15T08:27:00.735Z,53.25
2018-05-15T08:29:26.720Z,53.06
2018-05-15T08:31:52.702Z,53.16
2018-05-15T08:34:18.733Z,52.98
2018-05-15T08:36:44.715Z,52.99
2018-05-15T08:39:10.696Z,53.43
2018-05-15T08:41:36.724Z,53.34
2018-05-15T08:44:02.711Z,53.45
2018-05-15T08:46:28.718Z,53.43
2018-05-15T08:48:54.706Z,53.40
2018-05-15T08:51:20.700Z,53.02
2018-05-15T08:53:46.722Z,52.96
2018-05-15T08:56:12.723Z,53.00
2018-05-15T08:58:38.722Z,53.04
2018-05-15T09:01:04.698Z,53.02
2018-05-15T09:03:30.735Z,53.05
2018-05-15T09:05:56.739Z,52.88
2018-05-15T09:08:22.721Z,52.90
2018-05-15T09:10:48.718Z,53.20
2018-05-15T09:13:14.724Z,53.11
2018-05-15T09:15:40.712Z,52.79
2018-05-15T09:18:06.686Z,53.07
2018-05-15T09:20:32.759Z,53.28
2018-05-15T09:22:58.724Z,53.12
2018-05-15T09:25:24.706Z,53.29
2018-05-15T09:27:50.691Z,53.33
2018-05-15T09:30:16.672Z,53.29
2018-05-15T09:32:42.657Z,53.26
2018-05-15T09:35:08.644Z,53.31
2018-05-15T09:37:34.630Z,53.22
2018-05-15T09:40:00.617Z,53.15
2018-05-15T09:42:26.591Z,53.26
2018-05-15T09:44:52.589Z,53.00
2018-05-15T09:47:18.574Z,52.76
2018-05-15T09:49:44.556Z,52.92
2018-05-15T09:52:10.560Z,52.77
2018-05-15T09:54:36.626Z,53.09
2018-05-15T09:57:02.572Z,53.16
2018-05-15T09:59:28.561Z,53.13
2018-05-15T10:01:54.561Z,52.93
2018-05-15T10:04:20.573Z,53.12
2018-05-15T10:06:46.594Z,53.03
2018-05-15T10:09:12.595Z,52.82
2018-05-15T10:11:38.582Z,52.84
2018-05-15T10:14:04.644Z,52.81
2018-05-15T10:16:30.718Z,53.15
2018-05-15T10:18:56.689Z,53.29
2018-05-15T10:21:22.709Z,53.08
2018-05-15T10:23:48.695Z,52.92
2018-05-15T10:26:14.698Z,52.89
2018-05-15T10:28:40.695Z,53.51
2018-05-15T10:31:06.766Z,53.27
2018-05-15T10:33:32.941Z,53.41
2018-05-15T10:35:58.905Z,53.15
2018-05-15T10:38:24.973Z,53.12
2018-05-15T10:40:50.931Z,53.41
2018-05-15T10:43:16.900Z,53.38
2018-05-15T10:45:42.884Z,53.09
2018-05-15T10:48:08.881Z,53.27
2018-05-15T10:50:34.872Z,53.48
2018-05-15T10:53:01.172Z,53.54
2018-05-15T10:55:27.160Z,53.58
2018-05-15T10:57:53.175Z,53.67
2018-05-15T11:00:19.169Z,53.60
2018-05-15T11:02:45.173Z,53.57
2018-05-15T11:05:11.221Z,53.46
2018-05-15T11:07:37.192Z,53.68
2018-05-15T11:10:03.196Z,53.60
2018-05-15T11:12:29.209Z,53.28
2018-05-15T11:14:55.184Z,53.62
2018-05-15T11:17:21.173Z,53.71
2018-05-15T11:19:47.158Z,53.46
2018-05-15T11:22:13.166Z,53.45
2018-05-15T11:24:39.292Z,53.47
2018-05-15T11:27:05.185Z,53.43
2018-05-15T11:29:31.185Z,53.51
2018-05-15T11:31:57.175Z,53.76
2018-05-15T11:34:23.159Z,53.51
2018-05-15T11:36:49.182Z,53.61
2018-05-15T11:39:15.200Z,53.70
2018-05-15T11:41:41.259Z,53.40
2018-05-15T11:44:07.173Z,53.57
2018-05-15T11:46:33.164Z,53.44
2018-05-15T11:48:59.672Z,53.70
2018-05-15T11:51:26.060Z,53.78
2018-05-15T11:53:51.270Z,53.77
2018-05-15T11:56:17.242Z,53.74
2018-05-15T11:58:43.226Z,53.71
2018-05-15T12:01:09.243Z,53.80
2018-05-15T12:03:35.263Z,53.79
2018-05-15T12:06:01.207Z,53.54
2018-05-15T12:08:27.244Z,53.73
2018-05-15T12:10:53.214Z,53.74
2018-05-15T12:13:19.210Z,53.62
2018-05-15T12:15:45.238Z,53.71
2018-05-15T12:18:11.218Z,53.58
2018-05-15T12:20:37.274Z,53.46
2018-05-15T12:23:03.186Z,53.41
2018-05-15T12:25:29.217Z,53.40
2018-05-15T12:27:55.248Z,53.71
2018-05-15T12:30:21.178Z,53.35
2018-05-15T12:32:47.178Z,53.40
2018-05-15T12:35:13.162Z,53.45
2018-05-15T12:37:39.148Z,53.34
2018-05-15T12:40:05.192Z,53.55
2018-05-15T12:42:31.159Z,53.69
2018-05-15T12:44:57.144Z,53.54
2018-05-15T12:47:23.159Z,53.44
2018-05-15T12:49:49.169Z,53.51
2018-05-15T12:52:15.158Z,53.30
2018-05-15T12:54:41.133Z,53.80
2018-05-15T12:57:07.114Z,53.30
2018-05-15T12:59:33.127Z,53.27
2018-05-15T13:01:59.108Z,53.61
2018-05-15T13:04:25.086Z,53.58
2018-05-15T13:06:51.088Z,53.58
2018-05-15T13:09:17.077Z,53.69
2018-05-15T13:11:43.063Z,53.63
2018-05-15T13:14:09.074Z,53.81
2018-05-15T13:16:35.084Z,53.62
2018-05-15T13:19:01.030Z,53.52
2018-05-15T13:21:27.024Z,53.58
2018-05-15T13:23:53.091Z,53.45
2018-05-15T13:26:19.034Z,53.48
2018-05-15T13:28:45.008Z,53.38
2018-05-15T13:31:10.987Z,53.67
2018-05-15T13:33:36.965Z,53.93
2018-05-15T13:36:02.955Z,53.92
2018-05-15T13:38:28.972Z,53.56
2018-05-15T13:40:54.964Z,53.27
2018-05-15T13:43:20.948Z,53.33
2018-05-15T13:45:46.929Z,53.58
2018-05-15T13:48:12.917Z,53.71
2018-05-15T13:50:38.928Z,53.58
2018-05-15T13:53:04.928Z,53.12
2018-05-15T13:55:30.944Z,53.24
2018-05-15T13:57:56.919Z,53.25
2018-05-15T14:00:22.886Z,53.51
2018-05-15T14:02:48.885Z,53.41
2018-05-15T14:05:14.865Z,53.60
2018-05-15T14:07:40.871Z,53.40
2018-05-15T14:10:06.858Z,53.25
2018-05-15T14:12:32.888Z,53.67
2018-05-15T14:14:58.848Z,53.65
2018-05-15T14:17:24.843Z,53.57
2018-05-15T14:19:50.846Z,53.15
2018-05-15T14:22:16.827Z,53.13
2018-05-15T14:24:42.847Z,53.07
2018-05-15T14:27:08.823Z,53.05
2018-05-15T14:29:34.873Z,53.09
2018-05-15T14:32:00.900Z,53.04
2018-05-15T14:34:26.889Z,53.23
2018-05-15T14:36:52.879Z,52.99
2018-05-15T14:39:18.922Z,53.20
2018-05-15T14:41:54.566Z,53.04
2018-05-15T14:44:19.252Z,53.18
2018-05-15T14:46:45.263Z,53.17
2018-05-15T14:49:11.275Z,52.79
2018-05-15T14:51:37.260Z,52.96
2018-05-15T14:54:03.247Z,52.86
2018-05-15T14:56:29.320Z,53.12
2018-05-15T14:58:55.320Z,52.77
2018-05-15T15:01:21.343Z,52.93
2018-05-15T15:03:47.335Z,52.94
2018-05-15T15:06:13.669Z,52.79
2018-05-15T15:08:39.652Z,52.76
2018-05-15T15:11:05.665Z,52.92
2018-05-15T15:13:31.719Z,53.26
2018-05-15T15:15:57.982Z,53.11
2018-05-15T15:18:23.993Z,53.15
2018-05-15T15:20:49.993Z,53.08
2018-05-15T15:23:15.982Z,52.96
2018-05-15T15:25:41.962Z,52.99
2018-05-15T15:28:07.991Z,52.89
2018-05-15T15:30:33.979Z,53.09
2018-05-15T15:32:59.970Z,53.00
2018-05-15T15:35:25.975Z,52.58
2018-05-15T15:37:51.975Z,52.96
2018-05-15T15:40:17.970Z,52.82
2018-05-15T15:42:43.988Z,52.90
2018-05-15T15:45:09.995Z,52.85
2018-05-15T15:47:35.970Z,52.82
2018-05-15T15:50:01.970Z,52.79
2018-05-15T15:52:27.956Z,52.78
2018-05-15T15:54:53.983Z,52.84
2018-05-15T15:57:20.002Z,52.69
2018-05-15T15:59:45.984Z,52.91
2018-05-15T16:02:12.027Z,52.86
2018-05-15T16:04:38.050Z,52.86
2018-05-15T16:07:04.057Z,52.73
2018-05-15T16:09:30.082Z,52.73
2018-05-15T16:11:56.467Z,52.63
2018-05-15T16:14:23.046Z,52.66
2018-05-15T16:16:49.011Z,52.65
2018-05-15T16:19:15.005Z,52.60
2018-05-15T16:21:41.590Z,52.63
2018-05-15T16:24:07.710Z,52.66
2018-05-15T16:26:33.745Z,52.61
2018-05-15T16:28:59.778Z,52.51
2018-05-15T16:31:27.521Z,52.57
2018-05-15T16:33:53.609Z,52.79
2018-05-15T16:36:25.331Z,52.85
2018-05-15T16:38:51.288Z,52.70
2018-05-15T16:41:19.891Z,52.70
2018-05-15T16:43:48.069Z,52.88
2018-05-15T16:46:14.397Z,53.08
2018-05-15T16:48:40.387Z,52.88
2018-05-15T16:51:06.576Z,52.89
2018-05-15T16:53:32.615Z,53.10
2018-05-15T16:55:58.608Z,52.68
2018-05-15T16:58:25.559Z,52.82
2018-05-15T17:00:52.389Z,52.54
2018-05-15T17:03:18.891Z,53.01
2018-05-15T17:05:45.160Z,52.87
2018-05-15T17:08:11.424Z,52.98
2018-05-15T17:10:37.339Z,52.64
2018-05-15T17:13:03.364Z,53.02
2018-05-15T17:15:29.756Z,53.10
2018-05-15T17:17:55.721Z,53.07
2018-05-15T17:20:21.758Z,52.86
2018-05-15T17:22:47.788Z,53.09
2018-05-15T17:25:13.792Z,53.09
2018-05-15T17:27:39.832Z,53.03
2018-05-15T17:30:05.816Z,53.13
2018-05-15T17:32:33.490Z,53.03
2018-05-15T17:34:59.519Z,53.09
2018-05-15T17:37:25.550Z,53.10
2018-05-15T17:39:51.500Z,52.87
2018-05-15T17:42:17.496Z,52.83
2018-05-15T17:44:43.494Z,53.25
2018-05-15T17:47:09.528Z,53.37
2018-05-15T17:49:35.523Z,52.93
2018-05-15T17:52:01.551Z,53.19
2018-05-15T17:54:28.960Z,53.40
2018-05-15T17:56:54.953Z,52.97
2018-05-15T17:59:21.124Z,53.18
2018-05-15T18:01:47.148Z,53.13
2018-05-15T18:04:13.535Z,53.14
2018-05-15T18:06:39.577Z,53.10
2018-05-15T18:09:05.573Z,53.16
2018-05-15T18:11:31.571Z,53.21
2018-05-15T18:13:57.869Z,52.97
2018-05-15T18:16:23.899Z,52.98
2018-05-15T18:18:49.938Z,53.11
2018-05-15T18:21:16.335Z,52.90
2018-05-15T18:23:42.213Z,52.78
2018-05-15T18:26:08.237Z,53.10
2018-05-15T18:28:34.191Z,53.04
2018-05-15T18:31:00.180Z,53.18
2018-05-15T18:33:26.420Z,52.79
2018-05-15T18:35:52.373Z,53.09
2018-05-15T18:38:18.362Z,52.79
2018-05-15T18:40:45.892Z,52.87
2018-05-15T18:43:11.855Z,52.87
2018-05-15T18:45:37.884Z,52.76
2018-05-15T18:48:03.865Z,52.75
2018-05-15T18:50:29.997Z,52.65
2018-05-15T18:52:55.988Z,52.74
2018-05-15T18:55:21.975Z,52.81
2018-05-15T18:57:47.960Z,52.74
2018-05-15T19:00:13.943Z,52.69
2018-05-15T19:02:39.939Z,52.82
2018-05-15T19:05:06.195Z,52.88
2018-05-15T19:07:32.843Z,52.72
2018-05-15T19:09:58.823Z,52.96
2018-05-15T19:12:24.812Z,52.81
2018-05-15T19:14:50.804Z,52.79
2018-05-15T19:17:16.795Z,53.01
2018-05-15T19:19:42.818Z,53.12
2018-05-15T19:22:08.781Z,52.92
2018-05-15T19:24:34.760Z,52.90
2018-05-15T19:27:00.864Z,53.00
2018-05-15T19:29:26.736Z,53.03
2018-05-15T19:31:52.724Z,53.03
2018-05-15T19:34:18.700Z,53.19
2018-05-15T19:36:44.717Z,53.24
2018-05-15T19:39:10.698Z,53.33
2018-05-15T19:41:36.690Z,53.21
2018-05-15T19:44:02.828Z,53.10
2018-05-15T19:46:28.811Z,53.12
2018-05-15T19:48:54.791Z,52.91
2018-05-15T19:51:20.909Z,53.04
2018-05-15T19:53:47.211Z,52.87
2018-05-15T19:56:13.192Z,53.00
2018-05-15T19:58:39.183Z,52.75
2018-05-15T20:01:05.940Z,52.94
2018-05-15T20:03:32.049Z,52.77
2018-05-15T20:05:57.988Z,52.71
2018-05-15T20:08:23.966Z,52.68
2018-05-15T20:10:50.001Z,52.85
2018-05-15T20:13:15.981Z,52.67
2018-05-15T20:15:41.974Z,52.72
2018-05-15T20:18:07.952Z,52.74
2018-05-15T20:20:34.913Z,52.63
2018-05-15T20:23:00.922Z,52.50
2018-05-15T20:25:28.203Z,52.61
2018-05-15T20:28:05.795Z,52.50
2018-05-15T20:30:32.050Z,52.54
2018-05-15T20:32:58.006Z,52.59
2018-05-15T20:35:24.008Z,52.66
2018-05-15T20:37:49.991Z,52.42
2018-05-15T20:40:16.045Z,52.54
2018-05-15T20:42:43.163Z,52.44
2018-05-15T20:45:09.177Z,52.49
2018-05-15T20:47:35.196Z,52.54
2018-05-15T20:50:01.175Z,52.42
2018-05-15T20:52:27.164Z,52.39
2018-05-15T20:54:53.147Z,52.48
2018-05-15T20:57:19.334Z,52.40
2018-05-15T20:59:45.351Z,52.35
2018-05-15T21:02:11.333Z,52.48
2018-05-15T21:04:37.313Z,52.38
2018-05-15T21:07:03.312Z,52.31
2018-05-15T21:09:29.291Z,52.36
2018-05-15T21:11:55.270Z,52.40
2018-05-15T21:14:21.256Z,52.37
2018-05-15T21:16:47.241Z,52.38
2018-05-15T21:19:13.224Z,52.22
2018-05-15T21:21:39.224Z,52.24
2018-05-15T21:24:05.243Z,52.28
2018-05-15T21:26:31.228Z,52.24
2018-05-15T21:28:57.204Z,52.24
2018-05-15T21:31:23.188Z,52.14
2018-05-15T21:33:49.178Z,52.28
2018-05-15T21:36:15.164Z,52.19
2018-05-15T21:38:41.149Z,52.29
2018-05-15T21:41:07.142Z,52.33
2018-05-15T21:43:33.120Z,52.27
2018-05-15T21:45:59.109Z,52.26
2018-05-15T21:48:25.089Z,52.18
2018-05-15T21:50:51.078Z,52.17
2018-05-15T21:53:17.094Z,52.23
2018-05-15T21:55:43.075Z,52.09
2018-05-15T21:58:09.060Z,52.19
2018-05-15T22:00:35.075Z,52.24
2018-05-15T22:03:01.075Z,52.15
2018-05-15T22:05:27.056Z,52.21
2018-05-15T22:07:53.050Z,52.04
2018-05-15T22:10:19.068Z,52.16
2018-05-15T22:12:45.059Z,52.03
2018-05-15T22:15:11.042Z,52.09
2018-05-15T22:17:37.027Z,52.14
2018-05-15T22:20:03.008Z,52.07
2018-05-15T22:22:28.996Z,52.18
2018-05-15T22:24:54.988Z,52.07
2018-05-15T22:27:20.971Z,52.08
2018-05-15T22:29:46.953Z,52.02
2018-05-15T22:32:12.952Z,52.06
2018-05-15T22:34:38.971Z,52.08
2018-05-15T22:37:04.956Z,52.02
2018-05-15T22:39:30.936Z,52.09
2018-05-15T22:41:56.915Z,51.92
2018-05-15T22:44:22.896Z,52.02
2018-05-15T22:46:48.882Z,52.06
2018-05-15T22:49:14.871Z,52.01
2018-05-15T22:51:40.869Z,51.95
2018-05-15T22:54:06.849Z,51.96
2018-05-15T22:56:32.862Z,52.01
2018-05-15T22:58:58.854Z,51.92
2018-05-15T23:01:24.837Z,51.88
2018-05-15T23:03:50.850Z,51.94
2018-05-15T23:06:16.842Z,51.96
2018-05-15T23:08:42.823Z,51.90
2018-05-15T23:11:08.807Z,51.91
2018-05-15T23:13:34.799Z,51.84
2018-05-15T23:16:00.783Z,51.78
2018-05-15T23:18:26.804Z,51.82
2018-05-15T23:20:52.790Z,51.77
2018-05-15T23:23:18.775Z,51.81
2018-05-15T23:25:44.763Z,51.89
2018-05-15T23:28:10.751Z,51.77
2018-05-15T23:30:36.766Z,51.91
2018-05-15T23:33:02.752Z,51.78
2018-05-15T23:35:28.727Z,51.78
2018-05-15T23:37:54.713Z,51.74
2018-05-15T23:40:20.718Z,51.79
2018-05-15T23:42:46.694Z,51.91
2018-05-15T23:45:12.682Z,51.82
2018-05-15T23:47:38.673Z,51.81
2018-05-15T23:50:04.660Z,51.88
2018-05-15T23:52:30.685Z,51.85
2018-05-15T23:54:56.668Z,51.77
2018-05-15T23:57:22.656Z,51.84
2018-05-15T23:59:48.644Z,51.72
